createdAt,value
2023-05-24T00:00:54.994Z,100.00
2023-05-24T00:03:22.027Z,100.00
2023-05-24T00:05:55.103Z,100.00
2023-05-24T00:08:21.906Z,100.00
2023-05-24T00:10:48.879Z,100.00
2023-05-24T00:13:15.702Z,100.00
2023-05-24T00:15:42.460Z,100.00
2023-05-24T00:18:22.489Z,100.00
2023-05-24T00:20:49.262Z,100.00
2023-05-24T00:23:16.010Z,100.00
2023-05-24T00:25:42.933Z,100.00
2023-05-24T00:28:09.817Z,100.00
2023-05-24T00:30:39.594Z,100.00
2023-05-24T00:33:12.525Z,100.00
2023-05-24T00:35:39.261Z,100.00
2023-05-24T00:38:12.141Z,100.00
2023-05-24T00:40:40.472Z,100.00
2023-05-24T00:43:10.491Z,100.00
2023-05-24T00:45:37.411Z,100.00
2023-05-24T00:48:11.203Z,100.00
2023-05-24T00:50:44.215Z,100.00
2023-05-24T00:53:14.087Z,100.00
2023-05-24T00:55:42.431Z,100.00
2023-05-24T00:58:18.699Z,100.00
2023-05-24T01:00:55.366Z,100.00
2023-05-24T01:03:25.272Z,100.00
2023-05-24T01:05:52.160Z,100.00
2023-05-24T01:08:42.562Z,100.00
2023-05-24T01:11:50.764Z,100.00
2023-05-24T01:14:44.293Z,100.00
2023-05-24T01:18:07.841Z,100.00
2023-05-24T01:20:38.808Z,100.00
2023-05-24T01:23:43.018Z,100.00
2023-05-24T01:26:57.056Z,100.00
2023-05-24T01:29:26.468Z,100.00
2023-05-24T01:31:57.513Z,100.00
2023-05-24T01:34:26.643Z,100.00
2023-05-24T01:36:59.619Z,100.00
2023-05-24T01:39:32.826Z,100.00
2023-05-24T01:42:45.708Z,100.00
2023-05-24T01:46:13.689Z,100.00
2023-05-24T01:49:13.894Z,100.00
2023-05-24T01:52:03.713Z,100.00
2023-05-24T01:54:42.417Z,100.00
2023-05-24T01:57:18.546Z,100.00
2023-05-24T01:59:48.077Z,100.00
2023-05-24T02:02:15.753Z,100.00
2023-05-24T02:04:49.999Z,100.00
2023-05-24T02:07:17.528Z,100.00
2023-05-24T02:09:47.301Z,100.00
2023-05-24T02:12:14.124Z,100.00
2023-05-24T02:14:42.796Z,100.00
2023-05-24T02:17:09.797Z,100.00
2023-05-24T02:19:37.243Z,100.00
2023-05-24T02:22:17.130Z,100.00
2023-05-24T02:24:43.895Z,100.00
2023-05-24T02:27:18.120Z,100.00
2023-05-24T02:29:47.717Z,100.00
2023-05-24T02:32:17.517Z,100.00
2023-05-24T02:34:47.491Z,100.00
2023-05-24T02:37:20.735Z,100.00
2023-05-24T02:39:47.470Z,100.00
2023-05-24T02:42:19.482Z,100.00
2023-05-24T02:44:59.980Z,100.00
2023-05-24T02:47:27.110Z,100.00
2023-05-24T02:49:57.373Z,100.00
2023-05-24T02:52:50.559Z,100.00
2023-05-24T02:55:17.376Z,100.00
2023-05-24T02:57:44.237Z,100.00
2023-05-24T03:00:14.910Z,100.00
2023-05-24T03:02:41.911Z,100.00
2023-05-24T03:05:09.289Z,100.00
2023-05-24T03:07:36.146Z,100.00
2023-05-24T03:10:15.928Z,100.00
2023-05-24T03:12:42.850Z,100.00
2023-05-24T03:15:10.574Z,100.00
2023-05-24T03:17:37.353Z,100.00
2023-05-24T03:20:05.891Z,100.00
2023-05-24T03:22:32.731Z,100.00
2023-05-24T03:24:59.490Z,100.00
2023-05-24T03:27:26.384Z,100.00
2023-05-24T03:29:55.446Z,100.00
2023-05-24T03:32:24.665Z,100.00
2023-05-24T03:34:51.419Z,100.00
2023-05-24T03:37:18.205Z,100.00
2023-05-24T03:39:46.933Z,100.00
2023-05-24T03:42:14.159Z,100.00
2023-05-24T03:44:40.934Z,100.00
2023-05-24T03:47:07.686Z,100.00
2023-05-24T03:49:34.430Z,100.00
2023-05-24T03:52:02.353Z,100.00
2023-05-24T03:54:31.902Z,100.00
2023-05-24T03:57:04.725Z,100.00
2023-05-24T03:59:34.386Z,100.00
2023-05-24T04:02:01.121Z,100.00
2023-05-24T04:04:32.104Z,100.00
2023-05-24T04:06:59.041Z,100.00
2023-05-24T04:09:29.081Z,100.00
2023-05-24T04:11:55.907Z,100.00
2023-05-24T04:14:31.691Z,100.00
2023-05-24T04:16:58.709Z,100.00
2023-05-24T04:19:25.852Z,100.00
2023-05-24T04:21:55.070Z,100.00
2023-05-24T04:24:21.786Z,100.00
2023-05-24T04:26:48.845Z,100.00
2023-05-24T04:29:17.338Z,100.00
2023-05-24T04:31:46.606Z,100.00
2023-05-24T04:34:22.571Z,100.00
2023-05-24T04:36:55.428Z,100.00
2023-05-24T04:39:23.450Z,100.00
2023-05-24T04:41:55.209Z,100.00
2023-05-24T04:44:23.336Z,100.00
2023-05-24T04:47:08.982Z,100.00
2023-05-24T04:49:36.173Z,100.00
2023-05-24T04:52:03.147Z,100.00
2023-05-24T04:54:34.367Z,100.00
2023-05-24T04:57:01.244Z,100.00
2023-05-24T04:59:28.194Z,100.00
2023-05-24T05:02:00.282Z,100.00
2023-05-24T05:04:27.254Z,100.00
2023-05-24T05:06:59.688Z,100.00
2023-05-24T05:09:36.646Z,100.00
2023-05-24T05:12:03.712Z,100.00
2023-05-24T05:14:30.874Z,100.00
2023-05-24T05:16:59.229Z,100.00
2023-05-24T05:19:26.237Z,100.00
2023-05-24T05:21:54.957Z,100.00
2023-05-24T05:24:25.190Z,100.00
2023-05-24T05:26:53.702Z,100.00
2023-05-24T05:29:21.736Z,100.00
2023-05-24T05:32:05.075Z,100.00
2023-05-24T05:34:32.154Z,100.00
2023-05-24T05:37:01.821Z,100.00
2023-05-24T05:39:28.749Z,100.00
2023-05-24T05:41:58.375Z,100.00
2023-05-24T05:44:25.354Z,100.00
2023-05-24T05:46:52.230Z,100.00
2023-05-24T05:49:24.604Z,100.00
2023-05-24T05:51:57.643Z,100.00
2023-05-24T05:54:26.537Z,100.00
2023-05-24T05:56:56.248Z,100.00
2023-05-24T05:59:23.298Z,100.00
2023-05-24T06:01:50.530Z,100.00
2023-05-24T06:04:18.027Z,100.00
2023-05-24T06:06:52.091Z,100.00
2023-05-24T06:09:24.918Z,100.00
2023-05-24T06:11:59.313Z,100.00
2023-05-24T06:14:26.162Z,100.00
2023-05-24T06:16:55.001Z,100.00
2023-05-24T06:19:27.181Z,100.00
2023-05-24T06:22:02.157Z,100.00
2023-05-24T06:24:29.081Z,100.00
2023-05-24T06:26:56.096Z,100.00
2023-05-24T06:29:26.514Z,100.00
2023-05-24T06:31:56.280Z,100.00
2023-05-24T06:34:26.364Z,100.00
2023-05-24T06:36:56.569Z,100.00
2023-05-24T06:39:26.756Z,100.00
2023-05-24T06:42:07.229Z,100.00
2023-05-24T06:44:35.088Z,100.00
2023-05-24T06:47:02.597Z,100.00
2023-05-24T06:49:30.033Z,100.00
2023-05-24T06:51:56.939Z,100.00
2023-05-24T06:54:25.660Z,100.00
2023-05-24T06:56:54.339Z,100.00
2023-05-24T06:59:24.544Z,100.00
2023-05-24T07:01:57.188Z,100.00
2023-05-24T07:04:29.219Z,100.00
2023-05-24T07:06:59.254Z,100.00
2023-05-24T07:09:29.275Z,100.00
2023-05-24T07:11:56.232Z,100.00
2023-05-24T07:14:27.465Z,100.00
2023-05-24T07:17:02.887Z,100.00
2023-05-24T07:19:30.090Z,100.00
2023-05-24T07:21:59.542Z,100.00
2023-05-24T07:24:29.594Z,100.00
2023-05-24T07:26:59.557Z,100.00
2023-05-24T07:29:26.875Z,100.00
2023-05-24T07:31:59.397Z,100.00
2023-05-24T07:34:30.233Z,100.00
2023-05-24T07:37:00.783Z,100.00
2023-05-24T07:39:28.486Z,100.00
2023-05-24T07:41:58.476Z,100.00
2023-05-24T07:44:27.971Z,100.00
2023-05-24T07:46:58.278Z,100.00
2023-05-24T07:49:25.314Z,100.00
2023-05-24T07:51:58.209Z,100.00
2023-05-24T07:54:28.231Z,100.00
2023-05-24T07:57:02.073Z,100.00
2023-05-24T07:59:32.166Z,100.00
2023-05-24T08:02:06.113Z,100.00
2023-05-24T08:04:33.373Z,100.00
2023-05-24T08:07:02.875Z,100.00
2023-05-24T08:09:41.654Z,100.00
2023-05-24T08:12:08.754Z,100.00
2023-05-24T08:14:37.381Z,100.00
2023-05-24T08:17:06.607Z,100.00
2023-05-24T08:19:35.879Z,100.00
2023-05-24T08:22:11.224Z,100.00
2023-05-24T08:24:38.076Z,100.00
2023-05-24T08:27:08.824Z,100.00
2023-05-24T08:29:37.566Z,100.00
2023-05-24T08:32:10.620Z,100.00
2023-05-24T08:34:37.804Z,100.00
2023-05-24T08:37:11.365Z,100.00
2023-05-24T08:39:41.527Z,100.00
2023-05-24T08:42:11.125Z,100.00
2023-05-24T08:45:22.172Z,100.00
2023-05-24T08:47:59.387Z,100.00
2023-05-24T08:50:34.788Z,100.00
2023-05-24T08:53:14.477Z,100.00
2023-05-24T08:55:45.845Z,100.00
2023-05-24T08:58:20.210Z,100.00
2023-05-24T09:00:46.983Z,92.16
2023-05-24T09:03:14.060Z,83.74
2023-05-24T09:05:43.012Z,81.92
2023-05-24T09:08:10.405Z,75.62
2023-05-24T09:10:53.068Z,70.19
2023-05-24T09:13:29.575Z,74.72
2023-05-24T09:15:58.123Z,80.85
2023-05-24T09:18:36.141Z,77.99
2023-05-24T09:21:12.437Z,81.55
2023-05-24T09:23:46.009Z,81.99
2023-05-24T09:26:13.380Z,88.43
2023-05-24T09:28:42.017Z,81.57
2023-05-24T09:31:12.540Z,79.66
2023-05-24T09:33:49.942Z,71.31
2023-05-24T09:36:17.683Z,68.31
2023-05-24T09:38:48.474Z,71.92
2023-05-24T09:41:15.520Z,79.08
2023-05-24T09:43:50.083Z,81.04
2023-05-24T09:46:19.947Z,83.92
2023-05-24T09:49:22.314Z,87.62
2023-05-24T09:51:52.078Z,80.39
2023-05-24T09:54:20.797Z,83.12
2023-05-24T09:56:47.440Z,73.79
2023-05-24T09:59:14.971Z,67.40
2023-05-24T10:01:41.580Z,67.65
2023-05-24T10:04:10.214Z,67.14
2023-05-24T10:06:41.345Z,66.42
2023-05-24T10:09:10.201Z,69.74
2023-05-24T10:11:41.571Z,71.63
2023-05-24T10:14:09.899Z,73.83
2023-05-24T10:16:38.368Z,75.88
2023-05-24T10:19:08.435Z,72.92
2023-05-24T10:21:51.290Z,76.00
2023-05-24T10:24:42.133Z,75.39
2023-05-24T10:27:23.164Z,72.70
2023-05-24T10:30:27.051Z,77.68
2023-05-24T10:32:56.972Z,73.75
2023-05-24T10:35:27.368Z,75.08
2023-05-24T10:38:08.620Z,74.34
2023-05-24T10:40:41.733Z,75.00
2023-05-24T10:43:09.595Z,78.00
2023-05-24T10:45:41.374Z,74.55
2023-05-24T10:48:13.981Z,69.64
2023-05-24T10:50:44.650Z,63.61
2023-05-24T10:53:22.383Z,58.39
2023-05-24T10:56:06.861Z,55.13
2023-05-24T10:59:02.545Z,52.04
2023-05-24T11:01:33.944Z,49.51
2023-05-24T11:04:15.309Z,50.76
2023-05-24T11:06:49.532Z,51.10
2023-05-24T11:09:27.558Z,49.08
2023-05-24T11:12:08.738Z,47.13
2023-05-24T11:14:40.106Z,47.75
2023-05-24T11:17:09.488Z,48.16
2023-05-24T11:20:06.748Z,47.68
2023-05-24T11:22:36.583Z,48.75
2023-05-24T11:25:09.111Z,49.36
2023-05-24T11:27:44.022Z,49.42
2023-05-24T11:30:12.507Z,50.73
2023-05-24T11:32:42.551Z,49.53
2023-05-24T11:35:11.675Z,50.53
2023-05-24T11:37:46.356Z,48.63
2023-05-24T11:40:20.347Z,48.85
2023-05-24T11:42:50.151Z,50.63
2023-05-24T11:45:21.864Z,49.14
2023-05-24T11:47:49.956Z,48.18
2023-05-24T11:50:26.631Z,47.85
2023-05-24T11:53:03.501Z,52.41
2023-05-24T11:55:30.294Z,51.78
2023-05-24T11:58:03.333Z,49.49
2023-05-24T12:00:30.710Z,51.54
2023-05-24T12:03:12.644Z,50.01
2023-05-24T12:05:39.813Z,48.31
2023-05-24T12:08:15.557Z,48.92
2023-05-24T12:10:46.877Z,50.66
2023-05-24T12:16:14.455Z,52.43
2023-05-24T12:18:48.457Z,50.58
2023-05-24T12:21:30.042Z,50.31
2023-05-24T12:23:58.352Z,49.88
2023-05-24T12:26:28.043Z,48.21
2023-05-24T12:28:58.879Z,48.80
2023-05-24T12:31:37.604Z,49.92
2023-05-24T12:34:05.873Z,51.45
2023-05-24T12:36:36.924Z,50.76
2023-05-24T12:39:45.396Z,51.84
2023-05-24T12:42:18.170Z,51.17
2023-05-24T12:44:45.283Z,49.58
2023-05-24T12:47:12.177Z,51.83
2023-05-24T12:49:38.958Z,49.65
2023-05-24T12:52:11.049Z,53.80
2023-05-24T12:54:37.739Z,49.62
2023-05-24T12:57:08.024Z,48.69
2023-05-24T12:59:39.635Z,47.30
2023-05-24T13:02:10.792Z,48.35
2023-05-24T13:04:43.383Z,47.71
2023-05-24T13:07:13.659Z,49.12
2023-05-24T13:09:40.355Z,51.71
2023-05-24T13:12:08.769Z,48.84
2023-05-24T13:14:38.636Z,47.77
2023-05-24T13:17:08.283Z,47.07
2023-05-24T13:19:37.906Z,48.24
2023-05-24T13:22:06.998Z,48.62
2023-05-24T13:24:49.173Z,45.82
2023-05-24T13:27:18.122Z,49.03
2023-05-24T13:29:59.749Z,49.52
2023-05-24T13:32:31.675Z,48.79
2023-05-24T13:34:59.109Z,48.33
2023-05-24T13:37:25.837Z,48.67
2023-05-24T13:39:55.270Z,52.33
2023-05-24T13:42:22.231Z,48.95
2023-05-24T13:44:49.378Z,47.96
2023-05-24T13:47:31.110Z,47.28
2023-05-24T13:50:09.974Z,48.57
2023-05-24T13:52:44.499Z,51.66
2023-05-24T13:55:11.383Z,49.69
2023-05-24T13:57:51.620Z,48.23
2023-05-24T14:00:19.888Z,47.10
2023-05-24T14:02:47.253Z,47.49
2023-05-24T14:05:26.893Z,49.15
2023-05-24T14:08:07.167Z,48.56
2023-05-24T14:10:44.917Z,46.01
2023-05-24T14:18:38.978Z,44.78
2023-05-24T14:21:12.444Z,44.35
2023-05-24T14:23:42.865Z,45.72
2023-05-24T14:26:09.523Z,45.65
2023-05-24T14:28:38.605Z,45.99
2023-05-24T14:31:14.669Z,46.53
2023-05-24T14:33:44.594Z,48.25
2023-05-24T14:36:11.380Z,45.17
2023-05-24T14:38:43.798Z,45.93
2023-05-24T14:41:11.129Z,46.11
2023-05-24T14:44:00.119Z,46.70
2023-05-24T14:46:27.414Z,47.36
2023-05-24T14:48:57.026Z,45.27
2023-05-24T14:51:31.436Z,48.43
2023-05-24T14:56:44.140Z,45.24
2023-05-24T14:59:14.974Z,47.02
2023-05-24T15:01:45.917Z,47.24
2023-05-24T15:07:00.956Z,47.61
2023-05-24T15:17:29.822Z,45.65
2023-05-24T15:19:58.741Z,48.76
2023-05-24T15:22:29.329Z,48.10
2023-05-24T15:30:24.166Z,45.84
2023-05-24T15:33:08.946Z,45.59
2023-05-24T15:35:36.717Z,44.33
2023-05-24T15:38:07.837Z,43.33
2023-05-24T15:40:34.822Z,43.41
2023-05-24T15:43:02.075Z,43.38
2023-05-24T15:45:31.652Z,44.17
2023-05-24T15:47:59.092Z,44.79
2023-05-24T15:50:42.529Z,44.18
2023-05-24T15:53:12.661Z,44.39
2023-05-24T15:55:48.669Z,43.18
2023-05-24T15:58:15.703Z,44.58
2023-05-24T16:00:46.709Z,46.36
2023-05-24T16:03:15.703Z,44.67
2023-05-24T16:05:55.423Z,43.66
2023-05-24T16:08:27.727Z,41.99
2023-05-24T16:11:11.923Z,42.09
2023-05-24T16:13:42.181Z,43.28
2023-05-24T16:16:09.963Z,44.09
2023-05-24T16:18:37.583Z,44.59
2023-05-24T16:21:07.012Z,45.34
2023-05-24T16:26:14.678Z,44.17
2023-05-24T16:28:48.351Z,45.47
2023-05-24T16:31:23.808Z,46.97
2023-05-24T16:33:57.483Z,46.59
2023-05-24T16:36:31.251Z,46.44
2023-05-24T16:38:59.257Z,44.91
2023-05-24T16:41:27.334Z,44.78
2023-05-24T16:43:57.200Z,43.44
2023-05-24T16:46:24.268Z,44.14
2023-05-24T16:48:51.060Z,46.08
2023-05-24T16:51:29.283Z,47.33
2023-05-24T16:53:56.663Z,47.10
2023-05-24T16:56:25.922Z,45.98
2023-05-24T16:58:55.555Z,45.54
2023-05-24T17:01:23.576Z,45.21
2023-05-24T17:03:59.551Z,46.32
2023-05-24T17:06:26.499Z,45.09
2023-05-24T17:08:55.641Z,46.21
2023-05-24T17:11:23.362Z,47.39
2023-05-24T17:13:51.590Z,46.85
2023-05-24T17:16:18.588Z,49.51
2023-05-24T17:18:51.803Z,49.94
2023-05-24T17:21:18.537Z,52.16
2023-05-24T17:23:46.361Z,54.41
2023-05-24T17:26:16.335Z,57.30
2023-05-24T17:28:58.569Z,56.58
2023-05-24T17:31:25.748Z,60.13
2023-05-24T17:33:55.119Z,58.53
2023-05-24T17:36:22.237Z,59.92
2023-05-24T17:38:48.877Z,59.04
2023-05-24T17:41:18.632Z,60.27
2023-05-24T17:44:00.828Z,63.43
2023-05-24T17:46:27.834Z,64.02
2023-05-24T17:48:58.258Z,64.44
2023-05-24T17:51:25.721Z,66.11
2023-05-24T17:53:54.912Z,70.13
2023-05-24T17:56:28.415Z,70.86
2023-05-24T17:58:57.749Z,71.14
2023-05-24T18:01:24.900Z,70.52
2023-05-24T18:03:58.128Z,69.95
2023-05-24T18:06:25.992Z,68.36
2023-05-24T18:08:55.334Z,72.25
2023-05-24T18:11:24.591Z,75.50
2023-05-24T18:13:51.286Z,75.45
2023-05-24T18:16:18.355Z,78.44
2023-05-24T18:18:48.660Z,81.35
2023-05-24T18:21:15.597Z,83.00
2023-05-24T18:23:42.688Z,85.58
2023-05-24T18:26:12.096Z,88.86
2023-05-24T18:28:41.453Z,91.26
2023-05-24T18:31:13.410Z,95.39
2023-05-24T18:34:16.978Z,98.31
2023-05-24T18:37:02.076Z,99.50
2023-05-24T18:39:28.817Z,100.00
2023-05-24T18:41:58.042Z,100.00
2023-05-24T18:44:28.269Z,100.00
2023-05-24T18:46:56.644Z,100.00
2023-05-24T18:49:26.265Z,100.00
2023-05-24T18:51:56.612Z,100.00
2023-05-24T18:54:23.409Z,100.00
2023-05-24T18:56:50.294Z,100.00
2023-05-24T18:59:40.386Z,100.00
2023-05-24T19:02:12.220Z,100.00
2023-05-24T19:04:39.008Z,100.00
2023-05-24T19:07:09.313Z,100.00
2023-05-24T19:09:36.553Z,100.00
2023-05-24T19:12:06.949Z,100.00
2023-05-24T19:14:36.074Z,100.00
2023-05-24T19:17:03.098Z,100.00
2023-05-24T19:19:30.161Z,100.00
2023-05-24T19:21:56.866Z,100.00
2023-05-24T19:24:28.746Z,100.00
2023-05-24T19:27:00.493Z,100.00
2023-05-24T19:29:32.111Z,100.00
2023-05-24T19:31:58.824Z,100.00
2023-05-24T19:34:28.815Z,100.00
2023-05-24T19:36:56.104Z,100.00
2023-05-24T19:39:31.668Z,100.00
2023-05-24T19:41:58.564Z,100.00
2023-05-24T19:44:29.945Z,100.00
2023-05-24T19:46:56.850Z,100.00
2023-05-24T19:49:26.606Z,100.00
2023-05-24T19:51:56.597Z,100.00
2023-05-24T19:54:23.631Z,100.00
2023-05-24T19:56:54.958Z,100.00
2023-05-24T19:59:21.800Z,100.00
2023-05-24T20:01:54.157Z,100.00
2023-05-24T20:04:22.069Z,100.00
2023-05-24T20:06:56.727Z,100.00
2023-05-24T20:09:23.404Z,100.00
2023-05-24T20:11:58.381Z,100.00
2023-05-24T20:14:25.102Z,100.00
2023-05-24T20:17:00.852Z,100.00
2023-05-24T20:19:28.446Z,100.00
2023-05-24T20:22:01.407Z,100.00
2023-05-24T20:24:30.940Z,100.00
2023-05-24T20:26:57.598Z,100.00
2023-05-24T20:29:24.316Z,100.00
2023-05-24T20:31:54.994Z,100.00
2023-05-24T20:34:22.398Z,100.00
2023-05-24T20:36:55.410Z,100.00
2023-05-24T20:39:22.178Z,100.00
2023-05-24T20:42:02.148Z,100.00
2023-05-24T20:44:29.648Z,100.00
2023-05-24T20:46:57.872Z,100.00
2023-05-24T20:49:24.654Z,100.00
2023-05-24T20:51:54.547Z,100.00
2023-05-24T20:54:21.216Z,100.00
2023-05-24T20:56:47.830Z,100.00
2023-05-24T20:59:14.574Z,100.00
2023-05-24T21:01:41.511Z,100.00
2023-05-24T21:04:08.289Z,100.00
2023-05-24T21:06:34.958Z,100.00
2023-05-24T21:09:08.386Z,100.00
2023-05-24T21:11:35.063Z,100.00
2023-05-24T21:14:01.919Z,100.00
2023-05-24T21:16:29.152Z,100.00
2023-05-24T21:19:05.104Z,100.00
2023-05-24T21:21:35.367Z,100.00
2023-05-24T21:24:02.481Z,100.00
2023-05-24T21:26:29.313Z,100.00
2023-05-24T21:28:56.195Z,100.00
2023-05-24T21:31:23.034Z,100.00
2023-05-24T21:33:49.851Z,100.00
2023-05-24T21:36:18.369Z,100.00
2023-05-24T21:38:45.285Z,100.00
2023-05-24T21:41:17.235Z,100.00
2023-05-24T21:43:43.941Z,100.00
2023-05-24T21:46:10.623Z,100.00
2023-05-24T21:48:37.365Z,100.00
2023-05-24T21:51:04.335Z,100.00
2023-05-24T21:53:31.157Z,100.00
2023-05-24T21:56:01.368Z,100.00
2023-05-24T21:58:30.963Z,100.00
2023-05-24T22:00:57.851Z,100.00
2023-05-24T22:03:27.758Z,100.00
2023-05-24T22:06:03.553Z,100.00
2023-05-24T22:08:30.533Z,100.00
2023-05-24T22:11:02.898Z,100.00
2023-05-24T22:13:29.722Z,100.00
2023-05-24T22:15:59.973Z,100.00
2023-05-24T22:18:30.430Z,100.00
2023-05-24T22:21:07.762Z,100.00
2023-05-24T22:23:37.393Z,100.00
2023-05-24T22:26:05.923Z,100.00
2023-05-24T22:28:51.838Z,100.00
2023-05-24T22:31:19.818Z,100.00
2023-05-24T22:33:49.165Z,100.00
2023-05-24T22:36:16.010Z,100.00
2023-05-24T22:38:42.882Z,100.00
2023-05-24T22:41:09.593Z,100.00
2023-05-24T22:43:36.464Z,100.00
2023-05-24T22:46:09.066Z,100.00
2023-05-24T22:48:37.685Z,100.00
2023-05-24T22:51:10.198Z,100.00
2023-05-24T22:53:39.315Z,100.00
2023-05-24T22:56:10.773Z,100.00
2023-05-24T22:58:38.079Z,100.00
2023-05-24T23:01:12.415Z,100.00
2023-05-24T23:03:39.118Z,100.00
2023-05-24T23:06:11.948Z,100.00
2023-05-24T23:08:42.261Z,100.00
2023-05-24T23:11:11.946Z,100.00
2023-05-24T23:13:42.094Z,100.00
2023-05-24T23:16:08.974Z,100.00
2023-05-24T23:18:37.872Z,100.00
2023-05-24T23:21:10.078Z,100.00
2023-05-24T23:23:40.336Z,100.00
2023-05-24T23:26:07.238Z,100.00
2023-05-24T23:28:35.057Z,100.00
2023-05-24T23:31:07.515Z,100.00
2023-05-24T23:33:34.332Z,100.00
2023-05-24T23:36:01.178Z,100.00
2023-05-24T23:38:28.012Z,100.00
2023-05-24T23:41:12.296Z,100.00
2023-05-24T23:43:39.191Z,100.00
2023-05-24T23:46:09.198Z,100.00
2023-05-24T23:48:36.215Z,100.00
2023-05-24T23:51:10.600Z,100.00
2023-05-24T23:53:40.404Z,100.00
2023-05-24T23:56:10.091Z,100.00
2023-05-24T23:58:40.270Z,100.00
